Time;durP1;ratioP1;P1;durP2;ratioP2;P2;SDS_P1;SDS_P2;PMS_P1;PMS_P2;Temp;Humidity;BMP_temperature;BMP_pressure;BME280_temperature;BME280_humidity;BME280_pressure;Samples;Min_cycle;Max_cycle;Signal;HPM_P1;HPM_P2
2023/10/24 00:00:15;;;;;;;13.05;7.70;;;;;;;11.05;100.00;100213.38;4897836;29;20061;-80
2023/10/24 00:02:40;;;;;;;12.63;7.75;;;;;;;11.05;100.00;100209.88;4878043;29;20124;-80
2023/10/24 00:05:06;;;;;;;13.30;7.60;;;;;;;11.05;100.00;100205.44;4898178;29;20177;-80
2023/10/24 00:07:31;;;;;;;13.90;7.70;;;;;;;11.06;100.00;100206.34;4898083;29;20499;-80
2023/10/24 00:09:57;;;;;;;11.55;7.32;;;;;;;11.07;100.00;100200.09;4871603;29;20378;-79
2023/10/24 00:12:22;;;;;;;14.38;7.63;;;;;;;11.07;100.00;100208.03;4894643;29;20544;-80
2023/10/24 00:14:48;;;;;;;12.80;7.93;;;;;;;11.07;100.00;100208.03;4890019;29;20072;-80
2023/10/24 00:17:13;;;;;;;12.60;7.55;;;;;;;11.07;100.00;100208.03;4849557;29;20049;-80
2023/10/24 00:19:39;;;;;;;10.98;6.75;;;;;;;11.07;100.00;100205.41;4897411;29;20412;-79
2023/10/24 00:22:04;;;;;;;12.00;6.68;;;;;;;11.08;100.00;100197.41;4897617;29;20071;-79
2023/10/24 00:24:30;;;;;;;14.48;6.53;;;;;;;11.08;100.00;100194.75;4876672;29;20121;-79
2023/10/24 00:26:57;;;;;;;12.38;6.90;;;;;;;11.11;100.00;100192.00;4869912;29;20535;-79
2023/10/24 00:29:22;;;;;;;9.32;7.25;;;;;;;11.11;100.00;100199.94;4867472;29;20041;-80
2023/10/24 00:31:48;;;;;;;9.77;6.43;;;;;;;11.10;100.00;100195.56;4870155;29;20377;-79
2023/10/24 00:34:13;;;;;;;7.75;5.53;;;;;;;11.13;100.00;100202.56;4882499;29;20033;-80
2023/10/24 00:36:40;;;;;;;9.38;5.95;;;;;;;11.13;100.00;100189.31;4846715;29;20127;-80
2023/10/24 00:39:08;;;;;;;9.63;5.93;;;;;;;11.16;100.00;100199.78;4873527;29;20056;-79
2023/10/24 00:41:34;;;;;;;11.23;5.50;;;;;;;11.16;100.00;100202.44;4895991;29;20119;-80
2023/10/24 00:43:59;;;;;;;11.75;5.57;;;;;;;11.16;100.00;100194.50;4880619;29;20035;-80
2023/10/24 00:46:26;;;;;;;7.10;5.25;;;;;;;11.17;100.00;100196.22;4877982;29;20508;-80
2023/10/24 00:48:52;;;;;;;13.23;5.35;;;;;;;11.17;100.00;100201.50;4878861;29;20097;-80
2023/10/24 00:51:19;;;;;;;10.10;5.05;;;;;;;11.18;100.00;100200.63;4891835;29;20448;-80
2023/10/24 00:53:45;;;;;;;8.30;5.03;;;;;;;11.19;100.00;100210.28;4878789;29;20393;-80
2023/10/24 00:56:11;;;;;;;10.27;4.75;;;;;;;11.21;100.00;100204.94;4877637;29;20072;-80
2023/10/24 00:58:38;;;;;;;9.88;4.90;;;;;;;11.18;100.00;100206.78;4878492;29;20033;-80
2023/10/24 01:01:10;;;;;;;9.52;5.30;;;;;;;11.15;100.00;100212.19;4878137;29;20060;-80
2023/10/24 01:03:37;;;;;;;7.97;4.95;;;;;;;11.14;100.00;100206.91;4861607;29;20503;-80
2023/10/24 01:06:04;;;;;;;7.05;4.63;;;;;;;11.12;100.00;100209.63;4884262;29;20043;-80
2023/10/24 01:08:32;;;;;;;11.98;4.95;;;;;;;11.11;100.00;100205.25;4868851;29;20091;-79
2023/10/24 01:10:57;;;;;;;8.50;4.75;;;;;;;11.12;100.00;100204.31;4831012;29;20064;-80
2023/10/24 01:13:23;;;;;;;9.38;4.63;;;;;;;11.11;100.00;100204.38;4888592;29;20037;-80
2023/10/24 01:15:48;;;;;;;10.82;4.63;;;;;;;11.12;100.00;100206.97;4867182;29;20492;-79
2023/10/24 01:18:14;;;;;;;7.57;4.10;;;;;;;11.12;100.00;100204.31;4880128;29;20048;-80
2023/10/24 01:20:39;;;;;;;6.78;4.13;;;;;;;11.13;100.00;100190.16;4896757;29;20100;-80
2023/10/24 01:23:10;;;;;;;7.38;4.40;;;;;;;11.09;100.00;100199.13;4880358;29;20063;-80
2023/10/24 01:25:40;;;;;;;7.05;4.10;;;;;;;11.12;100.00;100199.00;4884348;29;20045;-79
2023/10/24 01:28:07;;;;;;;6.70;4.15;;;;;;;11.09;100.00;100191.19;4856016;29;20477;-80
2023/10/24 01:30:35;;;;;;;10.05;4.10;;;;;;;11.09;100.00;100203.56;4870956;29;20052;-80
2023/10/24 01:33:01;;;;;;;6.18;3.90;;;;;;;11.08;100.00;100202.72;4868465;29;20028;-80
2023/10/24 01:35:26;;;;;;;6.95;4.43;;;;;;;11.08;100.00;100209.81;4886918;29;20120;-80
2023/10/24 01:37:52;;;;;;;5.55;3.65;;;;;;;11.04;100.00;100208.16;4897181;29;20092;-80
2023/10/24 01:40:17;;;;;;;7.45;3.88;;;;;;;11.02;100.00;100197.59;4874243;29;20104;-79
2023/10/24 01:42:43;;;;;;;9.45;4.03;;;;;;;11.02;100.00;100199.38;4894966;29;20128;-79
2023/10/24 01:45:09;;;;;;;6.18;3.80;;;;;;;11.00;100.00;100207.38;4889257;29;20045;-80
2023/10/24 01:47:34;;;;;;;20.75;3.97;;;;;;;11.01;100.00;100210.91;4884710;29;20040;-79
2023/10/24 01:50:00;;;;;;;6.13;3.80;;;;;;;10.97;100.00;100208.34;4887129;29;20051;-79
2023/10/24 01:52:26;;;;;;;5.47;3.40;;;;;;;10.93;100.00;100204.09;4883401;29;20097;-80
2023/10/24 01:54:51;;;;;;;5.43;3.55;;;;;;;10.94;100.00;100197.88;4865901;29;20096;-79
2023/10/24 01:57:18;;;;;;;4.88;3.30;;;;;;;10.93;100.00;100195.28;4864846;29;20030;-80
2023/10/24 01:59:43;;;;;;;7.43;3.78;;;;;;;10.91;100.00;100192.69;4849607;29;20404;-80
2023/10/24 02:02:09;;;;;;;5.25;3.42;;;;;;;10.90;100.00;100193.56;4867621;29;20055;-80
2023/10/24 02:04:49;;;;;;;4.63;3.60;;;;;;;10.90;100.00;100196.22;4861345;29;20460;-80
2023/10/24 02:07:15;;;;;;;5.32;3.60;;;;;;;10.87;100.00;100191.03;4883138;29;20133;-80
2023/10/24 02:09:40;;;;;;;5.30;3.40;;;;;;;10.90;100.00;100190.06;4883436;29;20461;-80
2023/10/24 02:12:06;;;;;;;6.60;3.83;;;;;;;10.89;100.00;100191.00;4869991;29;20047;-80
2023/10/24 02:14:32;;;;;;;6.03;3.58;;;;;;;10.87;100.00;100185.75;4887191;29;20076;-79
2023/10/24 02:16:57;;;;;;;6.82;3.83;;;;;;;10.86;100.00;100191.97;4882751;29;20094;-79
2023/10/24 02:19:24;;;;;;;8.93;3.97;;;;;;;10.85;100.00;100198.16;4883245;29;20198;-80
2023/10/24 02:21:50;;;;;;;5.95;3.40;;;;;;;10.83;100.00;100197.38;4900307;29;20032;-79
2023/10/24 02:24:15;;;;;;;7.57;3.75;;;;;;;10.83;100.00;100192.06;4883122;29;20075;-79
2023/10/24 02:26:40;;;;;;;6.05;3.88;;;;;;;10.82;100.00;100192.13;4899753;29;20489;-79
2023/10/24 02:29:06;;;;;;;6.25;3.85;;;;;;;10.81;100.00;100191.25;4872141;29;20037;-80
2023/10/24 02:31:32;;;;;;;6.63;3.83;;;;;;;10.83;100.00;100193.84;4877771;29;20043;-80
2023/10/24 02:33:57;;;;;;;5.47;3.90;;;;;;;10.82;100.00;100187.69;4883687;29;20024;-80
2023/10/24 02:36:24;;;;;;;6.40;3.60;;;;;;;10.79;100.00;100195.72;4880776;29;20057;-80
2023/10/24 02:38:49;;;;;;;4.75;3.45;;;;;;;10.84;100.00;100198.22;4863897;29;20068;-80
2023/10/24 02:41:15;;;;;;;5.88;3.72;;;;;;;10.81;100.00;100208.94;4880500;29;20041;-80
2023/10/24 02:43:40;;;;;;;4.50;3.45;;;;;;;10.78;100.00;100207.25;4863430;29;20076;-80
2023/10/24 02:46:06;;;;;;;5.60;3.33;;;;;;;10.77;100.00;100200.22;4880509;29;20053;-79
2023/10/24 02:48:32;;;;;;;6.80;3.92;;;;;;;10.75;100.00;100205.53;4864009;29;20064;-80
2023/10/24 02:50:58;;;;;;;7.70;3.65;;;;;;;10.72;100.00;100208.31;4880390;29;20045;-80
2023/10/24 02:53:25;;;;;;;4.93;3.60;;;;;;;10.71;100.00;100216.31;4863830;29;20028;-79
2023/10/24 02:55:51;;;;;;;7.63;3.75;;;;;;;10.74;100.00;100211.78;4863892;29;20396;-80
2023/10/24 02:58:17;;;;;;;5.00;3.20;;;;;;;10.80;100.00;100231.88;4880608;29;20033;-81
2023/10/24 03:00:44;;;;;;;5.47;3.30;;;;;;;10.69;100.00;100221.66;4863687;29;20041;-79
2023/10/24 03:03:10;;;;;;;7.53;3.38;;;;;;;10.66;100.00;100227.06;4864038;29;20049;-80
2023/10/24 03:05:36;;;;;;;6.90;3.95;;;;;;;10.64;100.00;100225.38;4880144;29;20401;-79
2023/10/24 03:08:03;;;;;;;6.45;3.40;;;;;;;10.63;100.00;100216.56;4863796;29;20041;-79
2023/10/24 03:10:28;;;;;;;6.10;3.40;;;;;;;10.65;100.00;100224.44;4863452;29;20041;-79
2023/10/24 03:12:55;;;;;;;4.47;3.47;;;;;;;10.57;100.00;100215.88;4863797;29;20056;-79
2023/10/24 03:15:20;;;;;;;4.25;3.45;;;;;;;10.54;100.00;100224.78;4880091;29;20540;-80
2023/10/24 03:17:46;;;;;;;7.53;3.38;;;;;;;10.53;100.00;100223.03;4880232;29;20039;-80
2023/10/24 03:20:11;;;;;;;6.32;3.55;;;;;;;10.52;100.00;100224.81;4880178;29;20045;-80
2023/10/24 03:22:38;;;;;;;4.22;3.38;;;;;;;10.53;100.00;100220.38;4863604;29;20040;-80
2023/10/24 03:25:04;;;;;;;6.95;3.70;;;;;;;10.52;100.00;100229.25;4863504;29;20041;-80
2023/10/24 03:27:30;;;;;;;4.53;3.50;;;;;;;10.51;100.00;100225.75;4879763;29;20374;-80
2023/10/24 03:29:55;;;;;;;7.50;3.83;;;;;;;10.47;100.00;100226.75;4854376;29;20041;-80
2023/10/24 03:32:21;;;;;;;6.13;3.88;;;;;;;10.49;100.00;100229.38;4863233;29;20049;-79
2023/10/24 03:34:46;;;;;;;5.18;4.00;;;;;;;10.48;100.00;100232.91;4878224;29;20072;-79
2023/10/24 03:37:12;;;;;;;5.18;4.00;;;;;;;10.45;100.00;100233.88;4879682;29;20041;-79
2023/10/24 03:39:37;;;;;;;7.65;3.80;;;;;;;10.44;100.00;100231.28;4879711;29;20045;-79
2023/10/24 03:42:03;;;;;;;5.63;4.18;;;;;;;10.42;100.00;100236.63;4879619;29;20041;-79
2023/10/24 03:44:29;;;;;;;5.10;4.13;;;;;;;10.42;100.00;100222.53;4879840;29;20454;-79
2023/10/24 03:46:54;;;;;;;4.85;4.05;;;;;;;10.40;100.00;100225.22;4879668;29;20045;-79
2023/10/24 03:49:20;;;;;;;6.13;4.22;;;;;;;10.40;100.00;100219.06;4879701;29;20049;-79
2023/10/24 03:51:46;;;;;;;9.38;4.60;;;;;;;10.45;100.00;100220.63;4879373;29;20120;-79
2023/10/24 03:54:12;;;;;;;5.30;4.05;;;;;;;10.43;100.00;100226.91;4862904;29;20504;-79
2023/10/24 03:56:38;;;;;;;5.55;4.00;;;;;;;10.41;100.00;100228.72;4879486;29;20059;-79
2023/10/24 03:59:06;;;;;;;7.38;4.88;;;;;;;10.38;100.00;100234.97;4862698;29;20477;-79
2023/10/24 04:01:34;;;;;;;6.13;4.07;;;;;;;10.40;100.00;100224.34;4879094;29;20149;-79
2023/10/24 04:04:00;;;;;;;6.95;4.85;;;;;;;10.41;100.00;100231.38;4847619;29;20124;-80
2023/10/24 04:06:25;;;;;;;5.75;4.13;;;;;;;10.41;100.00;100239.31;4878957;29;20131;-77
2023/10/24 04:08:51;;;;;;;5.22;4.35;;;;;;;10.38;100.00;100240.25;4879441;29;20115;-79
2023/10/24 04:11:17;;;;;;;5.18;4.18;;;;;;;10.39;100.00;100239.38;4879055;29;20041;-79
2023/10/24 04:13:44;;;;;;;6.50;4.35;;;;;;;10.40;100.00;100232.28;4879303;29;20044;-79
2023/10/24 04:16:10;;;;;;;5.45;4.40;;;;;;;10.37;100.00;100227.09;4878928;29;20553;-79
2023/10/24 04:18:36;;;;;;;7.03;4.47;;;;;;;10.34;100.00;100228.06;4862450;29;20097;-78
2023/10/24 04:21:01;;;;;;;6.30;4.60;;;;;;;10.33;100.00;100224.53;4879145;29;20041;-79
2023/10/24 04:23:27;;;;;;;5.78;4.28;;;;;;;10.33;100.00;100218.38;4878984;29;20457;-79
2023/10/24 04:25:52;;;;;;;5.78;4.93;;;;;;;10.32;100.00;100219.28;4879033;29;20039;-79
2023/10/24 04:28:18;;;;;;;7.78;4.78;;;;;;;10.31;100.00;100210.50;4878890;29;20485;-79
2023/10/24 04:30:43;;;;;;;9.10;4.60;;;;;;;10.29;100.00;100211.47;4878667;29;20041;-79
2023/10/24 04:33:09;;;;;;;4.50;3.70;;;;;;;10.37;100.00;100200.63;4877140;29;20045;-79
2023/10/24 04:35:47;;;;;;;6.55;4.40;;;;;;;10.30;100.00;100192.00;4878455;29;20077;-78
2023/10/24 04:38:13;;;;;;;4.97;4.15;;;;;;;10.37;100.00;100200.63;4862421;29;20338;-79
2023/10/24 04:40:39;;;;;;;5.30;4.45;;;;;;;10.30;100.00;100186.72;4878520;29;20041;-79
2023/10/24 04:43:05;;;;;;;11.90;4.72;;;;;;;10.28;100.00;100186.75;4878786;29;20120;-79
2023/10/24 04:45:32;;;;;;;6.20;4.45;;;;;;;10.26;100.00;100185.03;4878416;29;20060;-79
2023/10/24 04:48:00;;;;;;;6.93;4.47;;;;;;;10.26;100.00;100190.31;4878660;29;20048;-79
2023/10/24 04:50:27;;;;;;;5.93;4.38;;;;;;;10.28;100.00;100193.81;4878430;29;20185;-79
2023/10/24 04:52:53;;;;;;;6.40;4.75;;;;;;;10.24;100.00;100198.34;4861949;29;20048;-79
2023/10/24 04:55:19;;;;;;;5.00;3.60;;;;;;;10.24;100.00;100195.69;4878343;29;20037;-79
2023/10/24 04:57:44;;;;;;;5.35;4.25;;;;;;;10.22;100.00;100196.66;4878655;29;20041;-79
2023/10/24 05:00:16;;;;;;;5.22;4.55;;;;;;;10.25;100.00;100205.34;4878097;29;20492;-79
2023/10/24 05:02:44;;;;;;;7.05;4.00;;;;;;;10.26;100.00;100203.56;4878328;29;20061;-79
2023/10/24 05:05:10;;;;;;;7.63;3.88;;;;;;;10.21;100.00;100203.72;4878314;29;20048;-79
2023/10/24 05:07:36;;;;;;;6.30;4.40;;;;;;;10.25;100.00;100205.34;4877930;29;20061;-79
2023/10/24 05:10:03;;;;;;;5.47;4.40;;;;;;;10.20;100.00;100204.63;4861677;29;20085;-79
2023/10/24 05:12:28;;;;;;;6.20;4.78;;;;;;;10.18;100.00;100202.94;4878173;29;20044;-78
2023/10/24 05:14:54;;;;;;;5.45;4.63;;;;;;;10.21;100.00;100205.47;4861785;29;20045;-79
2023/10/24 05:17:19;;;;;;;4.78;4.25;;;;;;;10.18;100.00;100201.16;4878092;29;20080;-80
2023/10/24 05:19:45;;;;;;;4.90;4.40;;;;;;;10.16;100.00;100205.63;4878374;29;20093;-78
2023/10/24 05:22:11;;;;;;;5.63;4.40;;;;;;;10.16;100.00;100197.69;4878034;29;20366;-79
2023/10/24 05:24:38;;;;;;;5.40;4.55;;;;;;;10.16;100.00;100200.31;4878197;29;20037;-79
2023/10/24 05:27:07;;;;;;;5.63;4.88;;;;;;;10.15;100.00;100205.69;4877988;29;20068;-79
2023/10/24 05:29:33;;;;;;;7.15;4.60;;;;;;;10.15;100.00;100208.31;4871311;29;20497;-79
2023/10/24 05:31:59;;;;;;;6.50;5.15;;;;;;;10.12;100.00;100194.28;4861198;29;20072;-79
2023/10/24 05:34:28;;;;;;;6.25;4.80;;;;;;;10.14;100.00;100207.47;4860563;29;20080;-79
2023/10/24 05:36:54;;;;;;;5.30;4.80;;;;;;;10.14;100.00;100204.81;4877811;29;20056;-79
2023/10/24 05:39:20;;;;;;;6.10;4.90;;;;;;;10.13;100.00;100198.63;4861128;29;20029;-79
2023/10/24 05:41:46;;;;;;;5.47;4.40;;;;;;;10.11;100.00;100178.44;4884785;29;20473;-79
2023/10/24 05:44:12;;;;;;;6.93;4.78;;;;;;;10.11;100.00;100171.38;4884059;29;20119;-79
2023/10/24 05:46:37;;;;;;;5.55;4.95;;;;;;;10.16;100.00;100178.28;4860913;29;20131;-79
2023/10/24 05:49:03;;;;;;;5.22;4.60;;;;;;;10.13;100.00;100177.47;4878056;29;20041;-79
2023/10/24 05:51:29;;;;;;;5.47;4.47;;;;;;;10.12;100.00;100180.19;4860956;29;20029;-79
2023/10/24 05:53:55;;;;;;;5.32;4.50;;;;;;;10.10;100.00;100182.88;4878137;29;20051;-79
2023/10/24 05:56:21;;;;;;;6.32;5.18;;;;;;;10.12;100.00;100188.13;4874047;29;20128;-79
2023/10/24 05:58:46;;;;;;;5.95;4.88;;;;;;;10.10;100.00;100179.34;4878053;29;20041;-79
2023/10/24 06:01:12;;;;;;;6.03;4.80;;;;;;;10.09;100.00;100189.09;4877759;29;20532;-79
2023/10/24 06:03:37;;;;;;;6.85;4.80;;;;;;;10.08;100.00;100197.91;4861016;29;20105;-79
2023/10/24 06:06:03;;;;;;;5.60;4.18;;;;;;;10.07;100.00;100193.53;4877659;29;20481;-79
2023/10/24 06:08:28;;;;;;;5.30;3.85;;;;;;;10.09;100.00;100196.16;4877865;29;20440;-80
2023/10/24 06:10:59;;;;;;;5.55;4.47;;;;;;;10.07;100.00;100204.13;4845642;29;20097;-78
2023/10/24 06:13:25;;;;;;;6.03;4.18;;;;;;;10.10;100.00;100219.91;4877728;29;20370;-79
2023/10/24 06:15:50;;;;;;;5.32;3.97;;;;;;;10.06;100.00;100209.44;4878270;29;20039;-79
2023/10/24 06:18:16;;;;;;;7.80;3.88;;;;;;;10.06;100.00;100215.63;4878225;29;20041;-79
2023/10/24 06:20:42;;;;;;;5.45;4.00;;;;;;;10.07;100.00;100222.66;4868222;29;20072;-79
2023/10/24 06:23:07;;;;;;;5.38;3.97;;;;;;;10.07;100.00;100209.41;4864549;29;20083;-79
2023/10/24 06:25:40;;;;;;;6.80;3.67;;;;;;;10.06;100.00;100197.13;4880973;29;20500;-79
2023/10/24 06:28:07;;;;;;;4.65;4.07;;;;;;;10.11;100.00;100191.66;4877284;29;20438;-80
2023/10/24 06:30:33;;;;;;;4.22;3.83;;;;;;;10.10;100.00;100189.94;4877943;29;20074;-79
2023/10/24 06:32:59;;;;;;;5.13;3.72;;;;;;;10.09;100.00;100188.22;4879670;29;20116;-79
2023/10/24 06:35:25;;;;;;;4.53;3.58;;;;;;;10.11;100.00;100191.66;4877141;29;20152;-79
2023/10/24 06:37:51;;;;;;;5.20;3.97;;;;;;;10.13;100.00;100193.34;4881091;29;20045;-79
2023/10/24 06:40:17;;;;;;;5.43;4.20;;;;;;;10.11;100.00;100200.50;4880656;29;20044;-79
2023/10/24 06:42:43;;;;;;;5.95;4.18;;;;;;;10.11;100.00;100207.53;4880930;29;20049;-79
2023/10/24 06:45:10;;;;;;;4.15;3.63;;;;;;;10.12;100.00;100211.94;4880675;29;20488;-79
2023/10/24 06:47:36;;;;;;;5.70;4.15;;;;;;;10.12;100.00;100223.38;4880869;29;20036;-80
2023/10/24 06:50:03;;;;;;;5.75;4.32;;;;;;;10.09;100.00;100228.75;4880594;29;20481;-79
2023/10/24 06:52:28;;;;;;;5.03;4.00;;;;;;;10.12;100.00;100241.91;4880571;29;20040;-79
2023/10/24 06:54:53;;;;;;;7.88;4.30;;;;;;;10.13;100.00;100245.41;4863860;29;20392;-79
2023/10/24 06:57:19;;;;;;;4.63;3.83;;;;;;;10.12;100.00;100241.03;4880458;29;20595;-79
2023/10/24 06:59:45;;;;;;;4.85;4.15;;;;;;;10.13;100.00;100234.81;4863957;29;20071;-79
2023/10/24 07:02:10;;;;;;;9.43;5.13;;;;;;;10.16;100.00;100217.97;4880226;29;20409;-79
2023/10/24 07:04:35;;;;;;;7.50;4.85;;;;;;;10.20;100.00;100219.63;4848391;29;20053;-79
2023/10/24 07:07:01;;;;;;;5.95;4.75;;;;;;;10.20;100.00;100217.84;4880318;29;20115;-79
2023/10/24 07:09:26;;;;;;;5.97;4.90;;;;;;;10.20;100.00;100217.84;4880534;29;20425;-79
2023/10/24 07:11:52;;;;;;;7.45;4.72;;;;;;;10.19;100.00;100207.28;4880080;29;20045;-79
2023/10/24 07:14:18;;;;;;;6.25;4.43;;;;;;;10.20;100.00;100209.06;4880338;29;20104;-79
2023/10/24 07:16:43;;;;;;;7.18;4.80;;;;;;;10.21;100.00;100209.00;4880120;29;20405;-79
2023/10/24 07:19:10;;;;;;;11.65;5.07;;;;;;;10.21;100.00;100201.06;4878828;29;20457;-79
2023/10/24 07:21:35;;;;;;;7.43;5.03;;;;;;;10.26;100.00;100215.03;4880129;29;20116;-79
2023/10/24 07:24:01;;;;;;;9.23;5.00;;;;;;;10.28;100.00;100212.34;4879907;29;20127;-79
2023/10/24 07:26:27;;;;;;;6.32;5.00;;;;;;;10.30;100.00;100207.88;4880050;29;20076;-79
2023/10/24 07:28:53;;;;;;;6.28;4.90;;;;;;;10.32;100.00;100200.78;4872388;29;20048;-79
2023/10/24 07:31:19;;;;;;;8.23;5.00;;;;;;;10.38;100.00;100197.06;4879813;29;20139;-79
2023/10/24 07:33:46;;;;;;;7.70;5.10;;;;;;;10.38;100.00;100210.28;4878736;29;20127;-79
2023/10/24 07:36:12;;;;;;;10.77;5.65;;;;;;;10.40;100.00;100204.03;4879514;29;20053;-79
2023/10/24 07:38:38;;;;;;;7.15;5.10;;;;;;;10.42;100.00;100217.22;4879725;29;20045;-79
2023/10/24 07:41:04;;;;;;;8.30;6.13;;;;;;;10.41;100.00;100226.97;4879483;29;20468;-79
2023/10/24 07:43:30;;;;;;;8.13;5.50;;;;;;;10.44;100.00;100212.75;4879958;29;20076;-79
2023/10/24 07:45:55;;;;;;;10.20;5.47;;;;;;;10.51;100.00;100219.59;4879421;29;20115;-79
2023/10/24 07:48:23;;;;;;;8.00;5.25;;;;;;;10.51;100.00;100207.22;4863144;29;20056;-79
2023/10/24 07:50:53;;;;;;;6.97;5.07;;;;;;;10.54;100.00;100215.06;4879454;29;20048;-80
2023/10/24 07:53:24;;;;;;;8.18;5.50;;;;;;;10.57;100.00;100215.88;4862599;29;20100;-79
2023/10/24 07:55:50;;;;;;;7.93;5.57;;;;;;;10.60;100.00;100206.03;4862649;29;20037;-79
2023/10/24 07:58:16;;;;;;;9.07;5.28;;;;;;;10.64;100.00;100194.44;4880597;29;20068;-80
2023/10/24 08:00:43;;;;;;;11.80;5.15;;;;;;;10.66;100.00;100197.94;4862714;29;20438;-79
2023/10/24 08:03:09;;;;;;;7.80;5.50;;;;;;;10.70;100.00;100196.03;4878906;29;20465;-79
2023/10/24 08:05:35;;;;;;;8.73;5.28;;;;;;;10.76;100.00;100191.41;4879095;29;20108;-79
2023/10/24 08:08:00;;;;;;;5.85;4.60;;;;;;;10.79;100.00;100189.56;4879306;29;20036;-80
2023/10/24 08:10:26;;;;;;;8.82;5.63;;;;;;;10.82;100.00;100187.69;4862486;29;20574;-80
2023/10/24 08:12:51;;;;;;;9.52;6.15;;;;;;;10.85;100.00;100198.16;4879040;29;20053;-80
2023/10/24 08:15:17;;;;;;;9.68;5.72;;;;;;;10.91;100.00;100191.81;4862183;29;20065;-79
2023/10/24 08:17:43;;;;;;;10.80;5.97;;;;;;;10.96;100.00;100190.72;4879059;29;20041;-79
2023/10/24 08:20:09;;;;;;;8.10;6.03;;;;;;;11.03;100.00;100203.75;4878734;29;20071;-79
2023/10/24 08:22:34;;;;;;;9.40;6.00;;;;;;;11.07;100.00;100213.34;4879096;29;20096;-79
2023/10/24 08:25:00;;;;;;;7.68;5.50;;;;;;;11.12;100.00;100206.97;4862126;29;20386;-79
2023/10/24 08:27:25;;;;;;;7.68;5.57;;;;;;;11.26;100.00;100192.38;4878697;29;20033;-79
2023/10/24 08:29:51;;;;;;;10.68;5.88;;;;;;;11.35;100.00;100198.22;4871265;29;20140;-80
2023/10/24 08:32:16;;;;;;;9.93;5.95;;;;;;;11.48;100.00;100195.16;4878629;29;20041;-79
2023/10/24 08:34:42;;;;;;;11.93;5.72;;;;;;;11.58;100.00;100201.84;4876903;29;20386;-79
2023/10/24 08:37:08;;;;;;;8.65;5.30;;;;;;;11.60;100.00;100200.00;4878369;29;20102;-80
2023/10/24 08:39:37;;;;;;;8.05;5.50;;;;;;;11.62;100.00;100200.78;4862168;29;20393;-80
2023/10/24 08:42:02;;;;;;;11.00;5.80;;;;;;;11.61;100.00;100217.63;4861052;29;20048;-80
2023/10/24 08:44:28;;;;;;;11.20;5.55;;;;;;;11.63;100.00;100223.75;4878531;29;20033;-79
2023/10/24 08:46:54;;;;;;;7.60;4.70;;;;;;;11.66;100.00;100230.75;4878339;29;20116;-80
2023/10/24 08:49:19;;;;;;;7.63;4.72;;;;;;;11.67;100.00;100237.75;4878614;29;20040;-79
2023/10/24 08:51:45;;;;;;;8.38;4.57;;;;;;;11.70;100.00;100230.56;4878013;29;20517;-79
2023/10/24 08:54:11;;;;;;;7.35;4.53;;;;;;;11.71;100.00;100234.94;4878534;29;20263;-79
2023/10/24 08:56:38;;;;;;;7.28;5.07;;;;;;;11.74;100.00;100231.31;4861455;29;20057;-79
2023/10/24 08:59:09;;;;;;;8.63;4.93;;;;;;;11.68;100.00;100229.75;4861687;29;20056;-80
2023/10/24 09:01:39;;;;;;;6.10;3.35;;;;;;;11.65;100.00;100221.94;4878136;29;20037;-79
2023/10/24 09:04:05;;;;;;;6.40;4.47;;;;;;;11.62;100.00;100227.31;4878107;29;20049;-80
2023/10/24 09:06:34;;;;;;;7.80;3.88;;;;;;;11.62;100.00;100236.16;4878194;29;20074;-80
2023/10/24 09:09:00;;;;;;;7.38;4.10;;;;;;;11.62;100.00;100233.50;4878273;29;20025;-80
2023/10/24 09:11:25;;;;;;;10.38;3.90;;;;;;;11.62;100.00;100222.00;4878226;29;20049;-80
2023/10/24 09:13:52;;;;;;;6.63;3.35;;;;;;;11.65;100.00;100215.72;4878247;29;20112;-80
2023/10/24 09:16:18;;;;;;;5.97;4.00;;;;;;;11.61;100.00;100207.03;4878107;29;20053;-80
2023/10/24 09:18:43;;;;;;;7.85;4.28;;;;;;;11.62;100.00;100211.41;4877992;29;20066;-80
2023/10/24 09:21:09;;;;;;;4.80;3.25;;;;;;;11.62;100.00;100214.94;4861469;29;20119;-80
2023/10/24 09:23:36;;;;;;;13.48;4.00;;;;;;;11.63;100.00;100214.00;4878082;29;20060;-80
2023/10/24 09:26:06;;;;;;;5.88;3.63;;;;;;;11.65;100.00;100205.13;4877839;29;20331;-80
2023/10/24 09:28:33;;;;;;;6.45;3.38;;;;;;;11.68;100.00;100199.72;4858567;29;20457;-80
2023/10/24 09:31:00;;;;;;;6.82;3.80;;;;;;;11.67;100.00;100209.47;4878204;29;20029;-80
2023/10/24 09:33:27;;;;;;;7.18;3.50;;;;;;;11.70;100.00;100203.19;4876379;29;20120;-80
2023/10/24 09:35:53;;;;;;;6.07;3.70;;;;;;;11.72;100.00;100196.91;4877706;29;20488;-81
2023/10/24 09:38:23;;;;;;;7.30;3.50;;;;;;;11.76;100.00;100189.69;4878108;29;20045;-81
2023/10/24 09:40:50;;;;;;;5.78;3.83;;;;;;;11.78;100.00;100190.50;4877996;29;20034;-81
2023/10/24 09:43:23;;;;;;;6.07;3.90;;;;;;;11.86;100.00;100200.81;4878000;29;20315;-80
2023/10/24 09:45:52;;;;;;;5.68;3.80;;;;;;;11.96;100.00;100211.06;4878479;29;20150;-80
2023/10/24 09:48:19;;;;;;;8.98;3.90;;;;;;;12.08;100.00;100214.19;4878420;29;20493;-80
2023/10/24 09:50:46;;;;;;;8.63;4.10;;;;;;;12.12;100.00;100210.50;4877916;29;20069;-81
2023/10/24 09:53:12;;;;;;;8.10;4.40;;;;;;;12.17;100.00;100208.53;4879916;29;20065;-80
2023/10/24 09:55:45;;;;;;;6.80;4.38;;;;;;;12.23;100.00;100198.53;4864912;29;20071;-80
2023/10/24 09:58:12;;;;;;;6.65;4.18;;;;;;;12.27;100.00;100192.19;4849749;29;20073;-79
2023/10/24 10:00:37;;;;;;;6.38;3.80;;;;;;;12.27;100.00;100186.00;4881348;29;20481;-79
2023/10/24 10:03:04;;;;;;;8.13;3.72;;;;;;;12.24;100.00;100189.66;4864563;29;20052;-79
2023/10/24 10:05:31;;;;;;;6.97;3.63;;;;;;;12.25;100.00;100190.50;4881138;29;20072;-79
2023/10/24 10:07:59;;;;;;;7.38;4.10;;;;;;;12.25;100.00;100188.72;4881401;29;20029;-79
2023/10/24 10:10:25;;;;;;;5.43;3.85;;;;;;;12.25;100.00;100185.19;4881287;29;20133;-79
2023/10/24 10:13:03;;;;;;;8.75;4.25;;;;;;;12.28;100.00;100185.06;4881378;29;20187;-79
2023/10/24 10:15:55;;;;;;;7.05;3.60;;;;;;;12.32;100.00;100193.81;4880867;29;20115;-79
2023/10/24 10:18:35;;;;;;;8.95;4.40;;;;;;;12.34;100.00;100194.56;4880911;29;20049;-79
2023/10/24 10:21:30;;;;;;;7.70;4.10;;;;;;;12.35;100.00;100198.97;4881045;29;20121;-79
2023/10/24 10:24:16;;;;;;;7.45;4.20;;;;;;;12.41;100.00;100201.38;4860096;29;20037;-79
2023/10/24 10:26:53;;;;;;;6.68;4.00;;;;;;;12.42;100.00;100204.00;4880962;29;20413;-79
2023/10/24 10:29:33;;;;;;;6.28;4.03;;;;;;;12.41;100.00;100204.03;4876431;29;20051;-80
2023/10/24 10:32:09;;;;;;;7.55;4.10;;;;;;;12.38;100.00;100209.47;4864039;29;20045;-80
2023/10/24 10:34:38;;;;;;;7.03;3.75;;;;;;;12.34;100.00;100197.22;4848182;29;20404;-80
2023/10/24 10:37:05;;;;;;;7.03;3.75;;;;;;;12.31;100.00;100203.53;4848141;29;20468;-80
2023/10/24 10:39:30;;;;;;;6.43;4.13;;;;;;;12.32;100.00;100196.47;4881076;29;20106;-80
2023/10/24 10:41:56;;;;;;;6.25;3.83;;;;;;;12.27;100.00;100186.00;4880557;29;20040;-80
2023/10/24 10:44:35;;;;;;;6.18;4.40;;;;;;;12.31;100.00;100189.41;4880784;29;20040;-79
2023/10/24 10:47:05;;;;;;;7.18;4.22;;;;;;;12.20;100.00;100185.38;4880667;29;20032;-79
2023/10/24 10:49:38;;;;;;;10.43;4.00;;;;;;;12.16;100.00;100177.59;4864019;29;20044;-79
2023/10/24 10:52:17;;;;;;;6.35;4.13;;;;;;;12.12;100.00;100178.66;4876492;29;20075;-80
2023/10/24 10:54:58;;;;;;;8.38;4.50;;;;;;;12.07;100.00;100183.25;4860266;29;20037;-81
2023/10/24 10:57:29;;;;;;;8.93;4.10;;;;;;;12.06;100.00;100182.38;4864231;29;20041;-83
2023/10/24 11:00:02;;;;;;;7.07;4.22;;;;;;;12.03;100.00;100186.03;4880616;29;20128;-84
2023/10/24 11:02:46;;;;;;;6.93;4.75;;;;;;;12.01;100.00;100179.03;4880047;29;20088;-83
2023/10/24 11:05:43;;;;;;;6.63;4.35;;;;;;;11.95;100.00;100185.47;4879699;29;20075;-83
2023/10/24 11:08:17;;;;;;;6.85;4.57;;;;;;;11.91;100.00;100190.94;4880445;29;20056;-84
2023/10/24 11:10:56;;;;;;;7.47;4.70;;;;;;;11.87;100.00;100179.59;4880112;29;20127;-84
2023/10/24 11:13:38;;;;;;;8.38;4.82;;;;;;;11.83;100.00;100177.94;4880624;29;20037;-84
2023/10/24 11:16:09;;;;;;;8.05;4.75;;;;;;;11.79;100.00;100178.97;4880320;29;20465;-85